首页
METAR-TAF:

METAR-TAF

机场 :

哈尔滨太平国际机场

哈尔滨, 中华人民共和国

纬度: 45-45N, 经度: 126-46E, 海拔: 143米

当前天气观测

该预报发布于35分钟前的14:00 UTC
风速6节,风向南转西南
温度 4°C
湿度 70%
气压 1012 hPa
能见度10公里或以上
1500米以下无云,无积雨云

METAR: ZYHB 231400Z 21003MPS CAVOK 04/M01 Q1012 NOSIG

时间: 22:35 (14:35 UTC)

预报

该预报发布于5小时和34分钟前的09:01 UTC
预报有效从23日的 12点(UTC)到 24日的 12点(UTC)
风速8节,风向西南
能見度: 6000
散云层高于3300英尺

TAF: ZYHB 230901Z 2312/2412 23004MPS 6000 SCT033 TX12/2406Z TN01/2321Z

超过4000个机场的气象观测和天气预报(METAR&TAF报告)。

可查询的气象台以黄色和红色小点在地图上表示。

将鼠标移到小点上方,可查看气象台名称。

然后点击查看天气观测和预报。

如需切换地图:点击带黑十字的绿色按钮放大地图;点击带横线的绿色按钮缩小地图;或者点击绿色箭头查看邻近地区的地图。


METAR-TAF: